sensor_id;sensor_type;location;lat;lon;timestamp;pressure;altitude;pressure_sealevel;temperature;humidity
68197;BME280;55019;49.382;11.358;2023-02-28T00:01:16;97393.78;;;-3.33;79.61
68197;BME280;55019;49.382;11.358;2023-02-28T00:03:42;97386.59;;;-3.43;79.41
68197;BME280;55019;49.382;11.358;2023-02-28T00:06:08;97388.13;;;-3.39;79.43
68197;BME280;55019;49.382;11.358;2023-02-28T00:08:38;97371.00;;;-3.31;79.31
68197;BME280;55019;49.382;11.358;2023-02-28T00:11:09;97382.84;;;-3.33;79.72
68197;BME280;55019;49.382;11.358;2023-02-28T00:13:37;97379.97;;;-3.24;80.03
68197;BME280;55019;49.382;11.358;2023-02-28T00:16:06;97384.38;;;-3.29;79.99
68197;BME280;55019;49.382;11.358;2023-02-28T00:18:32;97386.16;;;-3.31;79.86
68197;BME280;55019;49.382;11.358;2023-02-28T00:20:58;97386.47;;;-3.40;80.07
68197;BME280;55019;49.382;11.358;2023-02-28T00:23:25;97386.47;;;-3.40;80.53
68197;BME280;55019;49.382;11.358;2023-02-28T00:25:51;97371.31;;;-3.40;80.56
68197;BME280;55019;49.382;11.358;2023-02-28T00:28:17;97374.84;;;-3.44;80.89
68197;BME280;55019;49.382;11.358;2023-02-28T00:30:43;97373.09;;;-3.42;80.60
68197;BME280;55019;49.382;11.358;2023-02-28T00:33:09;97380.66;;;-3.42;81.33
68197;BME280;55019;49.382;11.358;2023-02-28T00:35:34;97376.34;;;-3.39;80.66
68197;BME280;55019;49.382;11.358;2023-02-28T00:38:00;97372.22;;;-3.41;81.01
68197;BME280;55019;49.382;11.358;2023-02-28T00:40:26;97373.94;;;-3.42;81.14
68197;BME280;55019;49.382;11.358;2023-02-28T00:42:52;97376.38;;;-3.40;81.12
68197;BME280;55019;49.382;11.358;2023-02-28T00:45:18;97377.38;;;-3.44;81.01
68197;BME280;55019;49.382;11.358;2023-02-28T00:47:44;97380.16;;;-3.50;81.98
68197;BME280;55019;49.382;11.358;2023-02-28T00:50:12;97373.94;;;-3.42;81.53
68197;BME280;55019;49.382;11.358;2023-02-28T00:52:38;97376.63;;;-3.46;81.46
68197;BME280;55019;49.382;11.358;2023-02-28T00:55:04;97367.41;;;-3.47;81.60
68197;BME280;55019;49.382;11.358;2023-02-28T00:57:30;97368.41;;;-3.51;82.04
68197;BME280;55019;49.382;11.358;2023-02-28T00:59:55;97367.28;;;-3.44;81.40
68197;BME280;55019;49.382;11.358;2023-02-28T01:02:22;97361.72;;;-3.52;81.72
68197;BME280;55019;49.382;11.358;2023-02-28T01:04:48;97359.81;;;-3.47;80.89
68197;BME280;55019;49.382;11.358;2023-02-28T01:07:14;97362.34;;;-3.47;81.87
68197;BME280;55019;49.382;11.358;2023-02-28T01:09:41;97360.66;;;-3.47;81.20
68197;BME280;55019;49.382;11.358;2023-02-28T01:12:08;97365.13;;;-3.53;82.00
68197;BME280;55019;49.382;11.358;2023-02-28T01:14:34;97361.59;;;-3.49;81.65
68197;BME280;55019;49.382;11.358;2023-02-28T01:17:00;97364.19;;;-3.51;82.05
68197;BME280;55019;49.382;11.358;2023-02-28T01:19:26;97366.13;;;-3.57;81.93
68197;BME280;55019;49.382;11.358;2023-02-28T01:21:52;97355.97;;;-3.56;81.99
68197;BME280;55019;49.382;11.358;2023-02-28T01:24:17;97368.03;;;-3.64;82.52
68197;BME280;55019;49.382;11.358;2023-02-28T01:26:44;97353.84;;;-3.66;82.50
68197;BME280;55019;49.382;11.358;2023-02-28T01:29:10;97360.47;;;-3.64;81.99
68197;BME280;55019;49.382;11.358;2023-02-28T01:31:36;97350.38;;;-3.64;82.10
68197;BME280;55019;49.382;11.358;2023-02-28T01:34:02;97357.03;;;-3.61;81.96
68197;BME280;55019;49.382;11.358;2023-02-28T01:36:28;97356.53;;;-3.71;81.78
68197;BME280;55019;49.382;11.358;2023-02-28T01:38:55;97355.09;;;-3.76;82.48
68197;BME280;55019;49.382;11.358;2023-02-28T01:41:24;97360.03;;;-3.73;82.77
68197;BME280;55019;49.382;11.358;2023-02-28T01:46:24;97346.44;;;-3.71;82.54
68197;BME280;55019;49.382;11.358;2023-02-28T01:49:05;97344.88;;;-3.73;82.20
68197;BME280;55019;49.382;11.358;2023-02-28T01:51:44;97348.91;;;-3.69;82.67
68197;BME280;55019;49.382;11.358;2023-02-28T01:54:15;97348.97;;;-3.71;82.53
68197;BME280;55019;49.382;11.358;2023-02-28T01:56:46;97346.75;;;-3.78;82.53
68197;BME280;55019;49.382;11.358;2023-02-28T01:59:20;97351.50;;;-3.71;82.91
68197;BME280;55019;49.382;11.358;2023-02-28T02:01:48;97351.72;;;-3.77;82.48
68197;BME280;55019;49.382;11.358;2023-02-28T02:04:14;97343.03;;;-3.70;82.46
68197;BME280;55019;49.382;11.358;2023-02-28T02:06:43;97345.78;;;-3.76;82.99
68197;BME280;55019;49.382;11.358;2023-02-28T02:09:11;97343.88;;;-3.69;82.79
68197;BME280;55019;49.382;11.358;2023-02-28T02:11:40;97339.34;;;-3.83;83.37
68197;BME280;55019;49.382;11.358;2023-02-28T02:34:21;97320.75;;;-3.80;84.09
68197;BME280;55019;49.382;11.358;2023-02-28T02:37:11;97316.84;;;-3.89;83.90
68197;BME280;55019;49.382;11.358;2023-02-28T02:39:54;97311.16;;;-3.94;84.28
68197;BME280;55019;49.382;11.358;2023-02-28T02:45:37;97325.25;;;-3.88;84.41
68197;BME280;55019;49.382;11.358;2023-02-28T02:47:56;97322.03;;;-3.92;84.41
68197;BME280;55019;49.382;11.358;2023-02-28T02:50:27;97326.59;;;-3.80;84.00
68197;BME280;55019;49.382;11.358;2023-02-28T02:52:59;97327.75;;;-3.88;84.01
68197;BME280;55019;49.382;11.358;2023-02-28T02:55:28;97330.28;;;-3.88;84.35
68197;BME280;55019;49.382;11.358;2023-02-28T02:57:59;97334.56;;;-3.90;84.09
68197;BME280;55019;49.382;11.358;2023-02-28T03:00:31;97328.94;;;-3.97;84.37
68197;BME280;55019;49.382;11.358;2023-02-28T03:02:58;97334.69;;;-3.93;84.32
68197;BME280;55019;49.382;11.358;2023-02-28T03:05:28;97329.75;;;-3.96;84.30
68197;BME280;55019;49.382;11.358;2023-02-28T03:07:56;97324.59;;;-3.93;84.28
68197;BME280;55019;49.382;11.358;2023-02-28T03:10:34;97329.41;;;-3.87;84.20
68197;BME280;55019;49.382;11.358;2023-02-28T03:24:38;97343.09;;;-3.93;84.27
68197;BME280;55019;49.382;11.358;2023-02-28T03:27:12;97338.97;;;-3.95;84.89
68197;BME280;55019;49.382;11.358;2023-02-28T03:29:54;97329.84;;;-3.98;84.60
68197;BME280;55019;49.382;11.358;2023-02-28T03:32:42;97331.63;;;-4.01;85.21
68197;BME280;55019;49.382;11.358;2023-02-28T03:35:19;97331.88;;;-4.07;85.81
68197;BME280;55019;49.382;11.358;2023-02-28T03:37:50;97333.25;;;-3.99;85.16
68197;BME280;55019;49.382;11.358;2023-02-28T03:40:22;97328.44;;;-4.05;85.48
68197;BME280;55019;49.382;11.358;2023-02-28T03:42:53;97331.63;;;-4.01;85.56
68197;BME280;55019;49.382;11.358;2023-02-28T03:45:29;97340.50;;;-3.91;85.03
68197;BME280;55019;49.382;11.358;2023-02-28T03:48:13;97333.16;;;-3.97;85.28
68197;BME280;55019;49.382;11.358;2023-02-28T03:50:44;97334.94;;;-3.99;85.37
68197;BME280;55019;49.382;11.358;2023-02-28T03:53:18;97326.31;;;-3.94;85.29
68197;BME280;55019;49.382;11.358;2023-02-28T03:55:48;97333.88;;;-3.94;84.72
68197;BME280;55019;49.382;11.358;2023-02-28T03:58:33;97335.75;;;-3.99;85.20
68197;BME280;55019;49.382;11.358;2023-02-28T04:01:11;97336.03;;;-4.06;85.80
68197;BME280;55019;49.382;11.358;2023-02-28T04:03:38;97334.22;;;-4.03;86.40
68197;BME280;55019;49.382;11.358;2023-02-28T04:06:07;97335.03;;;-4.02;86.00
68197;BME280;55019;49.382;11.358;2023-02-28T04:08:33;97340.31;;;-4.08;86.22
68197;BME280;55019;49.382;11.358;2023-02-28T04:14:01;97341.97;;;-4.07;86.39
68197;BME280;55019;49.382;11.358;2023-02-28T04:16:28;97336.81;;;-4.04;86.33
68197;BME280;55019;49.382;11.358;2023-02-28T04:18:53;97346.91;;;-4.04;86.09
68197;BME280;55019;49.382;11.358;2023-02-28T04:21:19;97344.34;;;-4.03;86.25
68197;BME280;55019;49.382;11.358;2023-02-28T04:23:47;97343.72;;;-4.09;87.03
68197;BME280;55019;49.382;11.358;2023-02-28T04:26:13;97331.75;;;-4.04;86.47
68197;BME280;55019;49.382;11.358;2023-02-28T04:28:38;97347.50;;;-3.98;85.73
68197;BME280;55019;49.382;11.358;2023-02-28T04:31:04;97345.25;;;-4.05;86.74
68197;BME280;55019;49.382;11.358;2023-02-28T04:33:32;97342.72;;;-4.05;86.26
68197;BME280;55019;49.382;11.358;2023-02-28T04:36:08;97338.56;;;-4.06;86.51
68197;BME280;55019;49.382;11.358;2023-02-28T04:38:35;97333.63;;;-4.09;87.09
68197;BME280;55019;49.382;11.358;2023-02-28T04:41:02;97344.44;;;-4.06;86.20
68197;BME280;55019;49.382;11.358;2023-02-28T04:43:28;97345.66;;;-3.94;86.16
68197;BME280;55019;49.382;11.358;2023-02-28T04:45:56;97341.81;;;-4.03;86.07
68197;BME280;55019;49.382;11.358;2023-02-28T04:48:27;97340.94;;;-4.02;86.40
68197;BME280;55019;49.382;11.358;2023-02-28T04:50:53;97331.47;;;-3.97;86.36
68197;BME280;55019;49.382;11.358;2023-02-28T04:53:19;97333.41;;;-4.03;86.53
68197;BME280;55019;49.382;11.358;2023-02-28T04:55:45;97332.72;;;-4.07;86.90
68197;BME280;55019;49.382;11.358;2023-02-28T04:58:12;97327.53;;;-4.04;86.62
68197;BME280;55019;49.382;11.358;2023-02-28T05:00:37;97326.72;;;-4.04;86.66
68197;BME280;55019;49.382;11.358;2023-02-28T05:03:03;97330.88;;;-4.03;86.54
68197;BME280;55019;49.382;11.358;2023-02-28T05:05:29;97330.22;;;-4.08;86.45
68197;BME280;55019;49.382;11.358;2023-02-28T05:07:54;97327.06;;;-4.13;87.07
68197;BME280;55019;49.382;11.358;2023-02-28T05:10:24;97334.56;;;-4.12;87.18
68197;BME280;55019;49.382;11.358;2023-02-28T05:12:49;97330.22;;;-4.08;86.98
68197;BME280;55019;49.382;11.358;2023-02-28T05:15:16;97335.50;;;-4.14;87.20
68197;BME280;55019;49.382;11.358;2023-02-28T05:17:42;97339.09;;;-3.98;86.83
68197;BME280;55019;49.382;11.358;2023-02-28T05:20:09;97345.47;;;-4.11;86.78
68197;BME280;55019;49.382;11.358;2023-02-28T05:22:39;97345.31;;;-4.07;87.42
68197;BME280;55019;49.382;11.358;2023-02-28T05:25:06;97341.09;;;-4.06;86.88
68197;BME280;55019;49.382;11.358;2023-02-28T05:27:32;97343.50;;;-4.03;86.66
68197;BME280;55019;49.382;11.358;2023-02-28T05:29:58;97348.50;;;-4.02;86.65
68197;BME280;55019;49.382;11.358;2023-02-28T05:32:24;97349.25;;;-4.00;86.71
68197;BME280;55019;49.382;11.358;2023-02-28T05:34:50;97349.38;;;-4.03;86.47
68197;BME280;55019;49.382;11.358;2023-02-28T05:37:16;97347.94;;;-4.10;86.53
68197;BME280;55019;49.382;11.358;2023-02-28T05:39:42;97351.19;;;-4.06;86.75
68197;BME280;55019;49.382;11.358;2023-02-28T05:42:08;97356.13;;;-4.03;86.12
68197;BME280;55019;49.382;11.358;2023-02-28T05:44:35;97355.22;;;-4.02;86.06
68197;BME280;55019;49.382;11.358;2023-02-28T05:47:01;97345.25;;;-4.05;86.17
68197;BME280;55019;49.382;11.358;2023-02-28T05:49:26;97348.53;;;-4.03;85.99
68197;BME280;55019;49.382;11.358;2023-02-28T05:51:52;97351.13;;;-4.05;85.92
68197;BME280;55019;49.382;11.358;2023-02-28T05:54:18;97358.59;;;-4.02;85.72
68197;BME280;55019;49.382;11.358;2023-02-28T05:56:44;97357.94;;;-4.07;85.90
68197;BME280;55019;49.382;11.358;2023-02-28T05:59:12;97367.69;;;-3.98;85.35
68197;BME280;55019;49.382;11.358;2023-02-28T06:01:42;97364.63;;;-4.06;85.66
68197;BME280;55019;49.382;11.358;2023-02-28T06:04:15;97366.22;;;-4.03;85.79
68197;BME280;55019;49.382;11.358;2023-02-28T06:06:46;97363.81;;;-4.06;85.30
68197;BME280;55019;49.382;11.358;2023-02-28T06:09:13;97367.84;;;-4.02;85.33
68197;BME280;55019;49.382;11.358;2023-02-28T06:11:39;97376.31;;;-4.03;84.74
68197;BME280;55019;49.382;11.358;2023-02-28T06:14:05;97377.41;;;-4.10;85.14
68197;BME280;55019;49.382;11.358;2023-02-28T06:16:34;97382.19;;;-4.03;84.69
68197;BME280;55019;49.382;11.358;2023-02-28T06:19:02;97373.66;;;-4.00;84.58
68197;BME280;55019;49.382;11.358;2023-02-28T06:21:29;97378.72;;;-4.00;84.64
68197;BME280;55019;49.382;11.358;2023-02-28T06:23:56;97377.94;;;-4.02;84.65
68197;BME280;55019;49.382;11.358;2023-02-28T06:26:21;97382.66;;;-3.93;83.94
68197;BME280;55019;49.382;11.358;2023-02-28T06:28:48;97378.38;;;-3.91;84.04
68197;BME280;55019;49.382;11.358;2023-02-28T06:31:16;97375.91;;;-3.93;83.77
68197;BME280;55019;49.382;11.358;2023-02-28T06:33:42;97376.56;;;-3.88;83.43
68197;BME280;55019;49.382;11.358;2023-02-28T06:36:09;97377.84;;;-3.78;83.23
68197;BME280;55019;49.382;11.358;2023-02-28T06:38:36;97384.19;;;-3.89;84.01
68197;BME280;55019;49.382;11.358;2023-02-28T06:41:02;97380.25;;;-3.75;83.48
68197;BME280;55019;49.382;11.358;2023-02-28T06:43:30;97389.59;;;-3.77;82.75
68197;BME280;55019;49.382;11.358;2023-02-28T06:45:58;97392.00;;;-3.74;82.43
68197;BME280;55019;49.382;11.358;2023-02-28T06:48:26;97393.03;;;-3.56;82.14
68197;BME280;55019;49.382;11.358;2023-02-28T06:50:52;97398.97;;;-3.57;81.35
68197;BME280;55019;49.382;11.358;2023-02-28T06:53:17;97390.97;;;-3.47;81.04
68197;BME280;55019;49.382;11.358;2023-02-28T06:55:43;97392.66;;;-3.47;81.32
68197;BME280;55019;49.382;11.358;2023-02-28T06:58:09;97394.19;;;-3.43;80.59
68197;BME280;55019;49.382;11.358;2023-02-28T07:00:42;97396.47;;;-3.37;80.70
68197;BME280;55019;49.382;11.358;2023-02-28T07:03:09;97397.03;;;-3.29;80.19
68197;BME280;55019;49.382;11.358;2023-02-28T07:05:36;97395.69;;;-3.18;79.71
68197;BME280;55019;49.382;11.358;2023-02-28T07:08:03;97402.34;;;-3.15;79.40
68197;BME280;55019;49.382;11.358;2023-02-28T07:10:30;97404.63;;;-3.09;78.97
68197;BME280;55019;49.382;11.358;2023-02-28T07:12:55;97409.69;;;-3.09;78.79
68197;BME280;55019;49.382;11.358;2023-02-28T07:15:21;97398.19;;;-2.96;78.45
68197;BME280;55019;49.382;11.358;2023-02-28T07:17:47;97411.03;;;-3.01;78.73
68197;BME280;55019;49.382;11.358;2023-02-28T07:20:13;97408.16;;;-2.93;77.73
68197;BME280;55019;49.382;11.358;2023-02-28T07:22:38;97405.53;;;-2.90;77.37
68197;BME280;55019;49.382;11.358;2023-02-28T07:25:05;97421.31;;;-2.86;77.80
68197;BME280;55019;49.382;11.358;2023-02-28T07:27:30;97411.09;;;-2.83;77.60
68197;BME280;55019;49.382;11.358;2023-02-28T07:29:56;97416.16;;;-2.63;76.77
68197;BME280;55019;49.382;11.358;2023-02-28T07:32:22;97405.06;;;-2.60;77.00
68197;BME280;55019;49.382;11.358;2023-02-28T07:34:48;97409.03;;;-2.53;76.61
68197;BME280;55019;49.382;11.358;2023-02-28T07:37:14;97419.44;;;-2.41;75.86
68197;BME280;55019;49.382;11.358;2023-02-28T07:39:40;97410.31;;;-2.45;76.45
68197;BME280;55019;49.382;11.358;2023-02-28T07:42:07;97404.41;;;-2.25;75.67
68197;BME280;55019;49.382;11.358;2023-02-28T07:44:40;97410.53;;;-2.11;74.88
68197;BME280;55019;49.382;11.358;2023-02-28T07:47:09;97414.75;;;-2.11;75.56
68197;BME280;55019;49.382;11.358;2023-02-28T07:49:36;97411.94;;;-2.05;75.43
68197;BME280;55019;49.382;11.358;2023-02-28T07:52:06;97405.81;;;-2.00;75.24
68197;BME280;55019;49.382;11.358;2023-02-28T07:54:33;97407.25;;;-1.94;74.55
68197;BME280;55019;49.382;11.358;2023-02-28T07:56:59;97406.75;;;-1.84;74.19
68197;BME280;55019;49.382;11.358;2023-02-28T07:59:24;97414.38;;;-1.65;74.61
68197;BME280;55019;49.382;11.358;2023-02-28T08:01:50;97409.56;;;-1.35;72.93
68197;BME280;55019;49.382;11.358;2023-02-28T08:04:17;97414.44;;;-0.96;71.13
68197;BME280;55019;49.382;11.358;2023-02-28T08:06:44;97407.75;;;-0.63;69.85
68197;BME280;55019;49.382;11.358;2023-02-28T08:09:10;97412.31;;;-0.20;69.31
68197;BME280;55019;49.382;11.358;2023-02-28T08:11:36;97417.47;;;0.26;66.54
68197;BME280;55019;49.382;11.358;2023-02-28T08:14:02;97419.78;;;0.30;65.22
68197;BME280;55019;49.382;11.358;2023-02-28T08:16:27;97417.50;;;0.41;64.64
68197;BME280;55019;49.382;11.358;2023-02-28T08:18:53;97420.06;;;0.57;64.36
68197;BME280;55019;49.382;11.358;2023-02-28T08:21:20;97413.78;;;0.62;63.18
68197;BME280;55019;49.382;11.358;2023-02-28T08:23:47;97423.97;;;1.23;61.42
68197;BME280;55019;49.382;11.358;2023-02-28T08:26:14;97419.47;;;1.99;58.72
68197;BME280;55019;49.382;11.358;2023-02-28T08:28:40;97428.38;;;2.74;56.76
68197;BME280;55019;49.382;11.358;2023-02-28T08:31:10;97421.50;;;2.48;55.43
68197;BME280;55019;49.382;11.358;2023-02-28T08:33:37;97421.31;;;2.51;55.75
68197;BME280;55019;49.382;11.358;2023-02-28T08:36:04;97411.69;;;3.21;54.94
68197;BME280;55019;49.382;11.358;2023-02-28T08:38:30;97415.56;;;4.28;51.74
68197;BME280;55019;49.382;11.358;2023-02-28T08:41:00;97425.44;;;4.81;48.86
68197;BME280;55019;49.382;11.358;2023-02-28T08:43:28;97418.13;;;4.76;48.81
68197;BME280;55019;49.382;11.358;2023-02-28T08:45:55;97413.75;;;4.89;48.73
68197;BME280;55019;49.382;11.358;2023-02-28T08:48:23;97423.25;;;4.64;48.41
68197;BME280;55019;49.382;11.358;2023-02-28T08:51:03;97423.53;;;4.72;48.44
68197;BME280;55019;49.382;11.358;2023-02-28T08:53:29;97413.59;;;5.95;46.35
68197;BME280;55019;49.382;11.358;2023-02-28T08:55:57;97410.94;;;5.73;45.45
68197;BME280;55019;49.382;11.358;2023-02-28T08:58:23;97416.53;;;6.13;45.32
68197;BME280;55019;49.382;11.358;2023-02-28T09:00:48;97417.56;;;5.99;44.72
68197;BME280;55019;49.382;11.358;2023-02-28T09:03:15;97419.84;;;6.90;43.12
68197;BME280;55019;49.382;11.358;2023-02-28T09:05:40;97414.63;;;7.12;42.27
68197;BME280;55019;49.382;11.358;2023-02-28T09:08:06;97405.31;;;8.34;40.60
68197;BME280;55019;49.382;11.358;2023-02-28T09:10:32;97417.50;;;8.32;38.80
68197;BME280;55019;49.382;11.358;2023-02-28T09:12:57;97413.13;;;7.61;39.89
68197;BME280;55019;49.382;11.358;2023-02-28T09:15:23;97417.28;;;6.79;41.95
68197;BME280;55019;49.382;11.358;2023-02-28T09:17:49;97407.41;;;7.37;39.89
68197;BME280;55019;49.382;11.358;2023-02-28T09:20:15;97404.53;;;7.51;39.35
68197;BME280;55019;49.382;11.358;2023-02-28T09:22:41;97404.34;;;7.64;38.58
68197;BME280;55019;49.382;11.358;2023-02-28T09:25:06;97410.28;;;8.26;38.15
68197;BME280;55019;49.382;11.358;2023-02-28T09:27:32;97403.66;;;8.03;37.44
68197;BME280;55019;49.382;11.358;2023-02-28T09:29:58;97402.25;;;8.49;37.08
68197;BME280;55019;49.382;11.358;2023-02-28T09:32:23;97393.19;;;9.60;35.73
68197;BME280;55019;49.382;11.358;2023-02-28T09:34:49;97401.09;;;9.49;35.07
68197;BME280;55019;49.382;11.358;2023-02-28T09:37:15;97399.28;;;9.40;34.96
68197;BME280;55019;49.382;11.358;2023-02-28T09:39:41;97403.09;;;8.98;36.28
68197;BME280;55019;49.382;11.358;2023-02-28T09:42:18;97397.13;;;9.64;34.92
68197;BME280;55019;49.382;11.358;2023-02-28T09:44:47;97399.19;;;9.51;35.06
68197;BME280;55019;49.382;11.358;2023-02-28T09:47:30;97403.25;;;8.67;35.65
68197;BME280;55019;49.382;11.358;2023-02-28T09:50:06;97402.56;;;8.26;36.33
68197;BME280;55019;49.382;11.358;2023-02-28T09:52:33;97412.13;;;8.74;36.15
68197;BME280;55019;49.382;11.358;2023-02-28T09:55:57;97400.97;;;10.25;34.00
68197;BME280;55019;49.382;11.358;2023-02-28T09:57:56;97409.19;;;9.07;34.75
68197;BME280;55019;49.382;11.358;2023-02-28T10:00:38;97399.16;;;11.50;31.94
68197;BME280;55019;49.382;11.358;2023-02-28T10:06:14;97396.88;;;10.86;31.91
68197;BME280;55019;49.382;11.358;2023-02-28T10:08:50;97399.75;;;11.62;31.44
68197;BME280;55019;49.382;11.358;2023-02-28T10:11:18;97403.75;;;9.95;32.59
68197;BME280;55019;49.382;11.358;2023-02-28T10:13:51;97401.88;;;11.49;31.07
68197;BME280;55019;49.382;11.358;2023-02-28T10:16:38;97413.25;;;10.77;31.96
68197;BME280;55019;49.382;11.358;2023-02-28T10:24:59;97397.91;;;11.97;29.04
68197;BME280;55019;49.382;11.358;2023-02-28T10:27:34;97408.09;;;12.16;29.50
68197;BME280;55019;49.382;11.358;2023-02-28T10:30:02;97411.38;;;12.93;29.12
68197;BME280;55019;49.382;11.358;2023-02-28T10:32:33;97403.81;;;13.15;28.27
68197;BME280;55019;49.382;11.358;2023-02-28T10:35:20;97394.47;;;13.54;28.62
68197;BME280;55019;49.382;11.358;2023-02-28T10:37:51;97408.75;;;12.18;29.83
68197;BME280;55019;49.382;11.358;2023-02-28T10:43:05;97397.13;;;11.79;28.45
68197;BME280;55019;49.382;11.358;2023-02-28T10:45:35;97402.13;;;10.94;30.64
68197;BME280;55019;49.382;11.358;2023-02-28T10:50:44;97399.06;;;12.62;31.06
68197;BME280;55019;49.382;11.358;2023-02-28T10:55:42;97400.41;;;13.07;29.34
68197;BME280;55019;49.382;11.358;2023-02-28T10:58:25;97414.06;;;13.17;29.83
68197;BME280;55019;49.382;11.358;2023-02-28T11:00:52;97409.88;;;12.49;28.92
68197;BME280;55019;49.382;11.358;2023-02-28T11:03:28;97409.34;;;11.87;29.56
68197;BME280;55019;49.382;11.358;2023-02-28T11:05:55;97402.47;;;10.81;31.58
68197;BME280;55019;49.382;11.358;2023-02-28T11:08:21;97399.06;;;11.77;30.00
68197;BME280;55019;49.382;11.358;2023-02-28T11:10:53;97408.03;;;12.34;29.89
68197;BME280;55019;49.382;11.358;2023-02-28T11:13:21;97399.81;;;13.29;29.22
68197;BME280;55019;49.382;11.358;2023-02-28T11:15:56;97400.56;;;12.05;29.98
68197;BME280;55019;49.382;11.358;2023-02-28T11:20:54;97408.00;;;12.26;29.16
68197;BME280;55019;49.382;11.358;2023-02-28T11:23:21;97402.47;;;12.54;27.65
68197;BME280;55019;49.382;11.358;2023-02-28T11:25:51;97400.31;;;11.73;29.63
68197;BME280;55019;49.382;11.358;2023-02-28T11:28:28;97411.78;;;11.36;30.31
68197;BME280;55019;49.382;11.358;2023-02-28T11:36:20;97394.63;;;11.70;28.72
68197;BME280;55019;49.382;11.358;2023-02-28T11:38:48;97395.09;;;12.08;29.85
68197;BME280;55019;49.382;11.358;2023-02-28T11:46:58;97388.25;;;14.81;26.30
68197;BME280;55019;49.382;11.358;2023-02-28T11:49:44;97380.03;;;15.76;25.40
68197;BME280;55019;49.382;11.358;2023-02-28T11:57:51;97384.34;;;14.47;28.03
68197;BME280;55019;49.382;11.358;2023-02-28T12:03:32;97385.84;;;16.37;23.34
68197;BME280;55019;49.382;11.358;2023-02-28T12:06:25;97390.53;;;14.38;25.80
68197;BME280;55019;49.382;11.358;2023-02-28T12:25:55;97387.25;;;15.88;23.89
68197;BME280;55019;49.382;11.358;2023-02-28T12:28:33;97377.03;;;16.38;24.11
68197;BME280;55019;49.382;11.358;2023-02-28T12:31:05;97380.53;;;15.26;24.82
68197;BME280;55019;49.382;11.358;2023-02-28T12:33:48;97379.47;;;15.66;25.24
68197;BME280;55019;49.382;11.358;2023-02-28T12:36:18;97380.03;;;15.00;25.34
68197;BME280;55019;49.382;11.358;2023-02-28T12:38:55;97372.59;;;15.87;24.57
68197;BME280;55019;49.382;11.358;2023-02-28T12:44:18;97373.91;;;16.05;24.83
68197;BME280;55019;49.382;11.358;2023-02-28T12:46:51;97362.50;;;16.06;24.80
68197;BME280;55019;49.382;11.358;2023-02-28T12:49:23;97364.75;;;15.28;24.73
68197;BME280;55019;49.382;11.358;2023-02-28T12:51:51;97358.69;;;15.58;24.40
68197;BME280;55019;49.382;11.358;2023-02-28T12:57:39;97355.00;;;15.22;24.42
68197;BME280;55019;49.382;11.358;2023-02-28T13:00:17;97362.22;;;15.42;25.58
68197;BME280;55019;49.382;11.358;2023-02-28T13:08:08;97357.72;;;15.36;24.25
68197;BME280;55019;49.382;11.358;2023-02-28T13:10:44;97366.09;;;16.20;23.91
68197;BME280;55019;49.382;11.358;2023-02-28T13:13:17;97365.47;;;16.18;24.48
68197;BME280;55019;49.382;11.358;2023-02-28T13:16:10;97360.03;;;16.71;23.84
68197;BME280;55019;49.382;11.358;2023-02-28T13:21:09;97375.41;;;16.66;23.97
68197;BME280;55019;49.382;11.358;2023-02-28T13:24:03;97370.88;;;15.12;25.47
68197;BME280;55019;49.382;11.358;2023-02-28T13:29:20;97377.94;;;12.82;28.17
68197;BME280;55019;49.382;11.358;2023-02-28T13:34:46;97362.16;;;14.21;26.95
68197;BME280;55019;49.382;11.358;2023-02-28T13:55:49;97367.56;;;14.49;26.13
68197;BME280;55019;49.382;11.358;2023-02-28T14:06:51;97359.78;;;16.14;24.78
68197;BME280;55019;49.382;11.358;2023-02-28T14:09:32;97360.19;;;15.52;24.99
68197;BME280;55019;49.382;11.358;2023-02-28T14:13:11;97365.69;;;14.74;26.47
68197;BME280;55019;49.382;11.358;2023-02-28T14:15:23;97366.84;;;14.09;26.82
68197;BME280;55019;49.382;11.358;2023-02-28T14:17:54;97359.75;;;13.79;26.29
68197;BME280;55019;49.382;11.358;2023-02-28T14:20:22;97352.13;;;13.38;27.14
68197;BME280;55019;49.382;11.358;2023-02-28T14:23:14;97356.38;;;11.81;29.36
68197;BME280;55019;49.382;11.358;2023-02-28T14:25:47;97369.97;;;12.34;28.61
68197;BME280;55019;49.382;11.358;2023-02-28T14:31:15;97342.41;;;14.80;26.54
68197;BME280;55019;49.382;11.358;2023-02-28T14:36:18;97346.03;;;15.32;25.36
68197;BME280;55019;49.382;11.358;2023-02-28T14:38:50;97356.22;;;14.43;26.09
68197;BME280;55019;49.382;11.358;2023-02-28T14:41:24;97345.44;;;13.19;27.43
68197;BME280;55019;49.382;11.358;2023-02-28T14:43:56;97352.56;;;12.52;28.23
68197;BME280;55019;49.382;11.358;2023-02-28T14:46:26;97356.19;;;13.32;28.06
68197;BME280;55019;49.382;11.358;2023-02-28T14:48:54;97343.81;;;14.60;26.50
68197;BME280;55019;49.382;11.358;2023-02-28T14:51:21;97341.84;;;15.23;25.61
68197;BME280;55019;49.382;11.358;2023-02-28T14:53:56;97351.16;;;12.74;27.96
68197;BME280;55019;49.382;11.358;2023-02-28T14:56:26;97355.38;;;12.75;28.81
68197;BME280;55019;49.382;11.358;2023-02-28T14:58:55;97346.81;;;12.82;28.94
68197;BME280;55019;49.382;11.358;2023-02-28T15:01:22;97345.03;;;10.60;31.77
68197;BME280;55019;49.382;11.358;2023-02-28T15:03:57;97343.91;;;11.42;31.09
68197;BME280;55019;49.382;11.358;2023-02-28T15:06:23;97338.66;;;10.82;31.48
68197;BME280;55019;49.382;11.358;2023-02-28T15:09:10;97336.53;;;11.12;31.03
68197;BME280;55019;49.382;11.358;2023-02-28T15:11:36;97351.66;;;10.45;32.61
68197;BME280;55019;49.382;11.358;2023-02-28T15:14:04;97339.63;;;10.81;32.02
68197;BME280;55019;49.382;11.358;2023-02-28T15:16:38;97349.97;;;9.81;33.91
68197;BME280;55019;49.382;11.358;2023-02-28T15:19:26;97351.50;;;10.20;33.36
68197;BME280;55019;49.382;11.358;2023-02-28T15:22:04;97354.34;;;8.76;35.65
68197;BME280;55019;49.382;11.358;2023-02-28T15:24:37;97358.97;;;9.49;34.35
68197;BME280;55019;49.382;11.358;2023-02-28T15:27:09;97353.97;;;9.47;34.64
68197;BME280;55019;49.382;11.358;2023-02-28T15:29:47;97354.09;;;9.17;35.20
68197;BME280;55019;49.382;11.358;2023-02-28T15:34:58;97344.44;;;10.49;32.52
68197;BME280;55019;49.382;11.358;2023-02-28T15:37:38;97353.66;;;9.69;34.04